sensor_id;sensor_type;location;lat;lon;timestamp;pressure;altitude;pressure_sealevel;temperature;humidity
21096;BME280;10706;49.036;12.112;2023-05-23T00:01:21;97235.63;;;13.75;87.92
21096;BME280;10706;49.036;12.112;2023-05-23T00:03:49;97236.97;;;13.68;87.43
21096;BME280;10706;49.036;12.112;2023-05-23T00:06:19;97246.38;;;13.65;88.57
21096;BME280;10706;49.036;12.112;2023-05-23T00:08:45;97249.84;;;13.60;88.65
21096;BME280;10706;49.036;12.112;2023-05-23T00:11:11;97250.38;;;13.57;88.70
21096;BME280;10706;49.036;12.112;2023-05-23T00:13:38;97246.63;;;13.53;88.80
21096;BME280;10706;49.036;12.112;2023-05-23T00:16:05;97251.72;;;13.50;88.31
21096;BME280;10706;49.036;12.112;2023-05-23T00:18:37;97247.13;;;13.45;88.92
21096;BME280;10706;49.036;12.112;2023-05-23T00:21:04;97241.75;;;13.40;88.41
21096;BME280;10706;49.036;12.112;2023-05-23T00:23:30;97247.13;;;13.40;89.34
21096;BME280;10706;49.036;12.112;2023-05-23T00:25:58;97246.56;;;13.38;89.19
21096;BME280;10706;49.036;12.112;2023-05-23T00:28:25;97243.63;;;13.34;88.86
21096;BME280;10706;49.036;12.112;2023-05-23T00:30:50;97243.09;;;13.32;89.46
21096;BME280;10706;49.036;12.112;2023-05-23T00:33:16;97246.59;;;13.33;89.22
21096;BME280;10706;49.036;12.112;2023-05-23T00:35:47;97250.81;;;13.29;88.85
21096;BME280;10706;49.036;12.112;2023-05-23T00:38:13;97255.09;;;13.25;88.81
21096;BME280;10706;49.036;12.112;2023-05-23T00:40:39;97255.66;;;13.21;88.80
21096;BME280;10706;49.036;12.112;2023-05-23T00:43:05;97259.09;;;13.17;88.70
21096;BME280;10706;49.036;12.112;2023-05-23T00:45:32;97267.41;;;13.15;89.31
21096;BME280;10706;49.036;12.112;2023-05-23T00:47:58;97270.09;;;13.10;88.82
21096;BME280;10706;49.036;12.112;2023-05-23T00:50:26;97272.19;;;13.08;89.65
21096;BME280;10706;49.036;12.112;2023-05-23T00:52:54;97263.09;;;13.09;89.91
21096;BME280;10706;49.036;12.112;2023-05-23T00:55:23;97266.88;;;13.13;88.73
21096;BME280;10706;49.036;12.112;2023-05-23T00:57:50;97273.06;;;13.14;88.87
21096;BME280;10706;49.036;12.112;2023-05-23T01:00:19;97266.88;;;13.13;89.03
21096;BME280;10706;49.036;12.112;2023-05-23T01:02:46;97273.31;;;13.12;89.17
21096;BME280;10706;49.036;12.112;2023-05-23T01:05:17;97268.97;;;13.06;89.36
21096;BME280;10706;49.036;12.112;2023-05-23T01:07:44;97268.44;;;13.04;89.67
21096;BME280;10706;49.036;12.112;2023-05-23T01:10:13;97260.91;;;12.96;90.61
21096;BME280;10706;49.036;12.112;2023-05-23T01:15:19;97274.06;;;12.97;90.07
21096;BME280;10706;49.036;12.112;2023-05-23T01:18:00;97272.97;;;12.98;89.76
21096;BME280;10706;49.036;12.112;2023-05-23T01:20:48;97275.94;;;13.02;90.11
21096;BME280;10706;49.036;12.112;2023-05-23T01:29:06;97289.84;;;12.94;90.22
21096;BME280;10706;49.036;12.112;2023-05-23T01:31:38;97287.94;;;12.89;90.24
21096;BME280;10706;49.036;12.112;2023-05-23T01:34:07;97298.41;;;12.91;90.81
21096;BME280;10706;49.036;12.112;2023-05-23T01:36:34;97297.63;;;13.00;91.22
21096;BME280;10706;49.036;12.112;2023-05-23T01:39:04;97297.34;;;12.97;91.36
21096;BME280;10706;49.036;12.112;2023-05-23T01:41:31;97295.47;;;12.92;91.09
21096;BME280;10706;49.036;12.112;2023-05-23T01:43:56;97297.31;;;12.87;91.68
21096;BME280;10706;49.036;12.112;2023-05-23T01:46:22;97298.38;;;12.86;91.44
21096;BME280;10706;49.036;12.112;2023-05-23T01:48:50;97289.00;;;12.83;91.44
21096;BME280;10706;49.036;12.112;2023-05-23T01:51:16;97290.88;;;12.82;91.85
21096;BME280;10706;49.036;12.112;2023-05-23T01:53:42;97292.19;;;12.80;92.30
21096;BME280;10706;49.036;12.112;2023-05-23T01:56:08;97297.53;;;12.75;91.73
21096;BME280;10706;49.036;12.112;2023-05-23T01:58:34;97299.91;;;12.71;92.88
21096;BME280;10706;49.036;12.112;2023-05-23T02:01:00;97300.69;;;12.67;93.37
21096;BME280;10706;49.036;12.112;2023-05-23T02:03:26;97302.00;;;12.64;93.35
21096;BME280;10706;49.036;12.112;2023-05-23T02:05:52;97302.28;;;12.62;93.84
21096;BME280;10706;49.036;12.112;2023-05-23T02:08:17;97296.66;;;12.64;93.70
21096;BME280;10706;49.036;12.112;2023-05-23T02:10:43;97305.53;;;12.70;94.64
21096;BME280;10706;49.036;12.112;2023-05-23T02:13:09;97299.41;;;12.79;93.65
21096;BME280;10706;49.036;12.112;2023-05-23T02:15:35;97291.13;;;12.81;93.75
21096;BME280;10706;49.036;12.112;2023-05-23T02:18:01;97295.97;;;12.84;93.97
21096;BME280;10706;49.036;12.112;2023-05-23T02:20:27;97292.78;;;12.92;93.75
21096;BME280;10706;49.036;12.112;2023-05-23T02:22:53;97291.19;;;12.96;93.48
21096;BME280;10706;49.036;12.112;2023-05-23T02:25:19;97301.94;;;13.01;93.29
21096;BME280;10706;49.036;12.112;2023-05-23T02:27:44;97294.44;;;13.03;93.23
21096;BME280;10706;49.036;12.112;2023-05-23T02:30:11;97296.28;;;12.98;92.20
21096;BME280;10706;49.036;12.112;2023-05-23T02:32:36;97297.88;;;12.94;92.79
21096;BME280;10706;49.036;12.112;2023-05-23T02:35:03;97301.13;;;12.96;92.56
21096;BME280;10706;49.036;12.112;2023-05-23T02:37:30;97295.22;;;12.94;92.70
21096;BME280;10706;49.036;12.112;2023-05-23T02:39:55;97303.00;;;12.95;92.53
21096;BME280;10706;49.036;12.112;2023-05-23T02:42:21;97310.50;;;12.93;92.17
21096;BME280;10706;49.036;12.112;2023-05-23T02:44:47;97308.03;;;12.87;92.28
21096;BME280;10706;49.036;12.112;2023-05-23T02:47:13;97311.19;;;12.73;91.96
21096;BME280;10706;49.036;12.112;2023-05-23T02:49:38;97303.16;;;12.73;92.84
21096;BME280;10706;49.036;12.112;2023-05-23T02:52:05;97307.41;;;12.74;93.15
21096;BME280;10706;49.036;12.112;2023-05-23T02:54:31;97310.13;;;12.79;92.88
21096;BME280;10706;49.036;12.112;2023-05-23T02:56:57;97298.34;;;12.75;92.27
21096;BME280;10706;49.036;12.112;2023-05-23T02:59:22;97306.91;;;12.77;92.38
21096;BME280;10706;49.036;12.112;2023-05-23T03:01:48;97305.56;;;12.75;92.55
21096;BME280;10706;49.036;12.112;2023-05-23T03:04:14;97299.13;;;12.76;93.42
21096;BME280;10706;49.036;12.112;2023-05-23T03:06:40;97309.03;;;12.75;93.32
21096;BME280;10706;49.036;12.112;2023-05-23T03:09:08;97309.03;;;12.75;92.95
21096;BME280;10706;49.036;12.112;2023-05-23T03:11:35;97300.75;;;12.77;93.80
21096;BME280;10706;49.036;12.112;2023-05-23T03:14:01;97297.28;;;12.81;93.37
21096;BME280;10706;49.036;12.112;2023-05-23T03:16:27;97303.69;;;12.75;93.89
21096;BME280;10706;49.036;12.112;2023-05-23T03:18:53;97299.94;;;12.76;93.82
21096;BME280;10706;49.036;12.112;2023-05-23T03:21:19;97296.19;;;12.77;93.84
21096;BME280;10706;49.036;12.112;2023-05-23T03:23:45;97294.59;;;12.76;94.03
21096;BME280;10706;49.036;12.112;2023-05-23T03:26:11;97290.28;;;12.75;93.49
21096;BME280;10706;49.036;12.112;2023-05-23T03:28:36;97293.50;;;12.77;93.96
21096;BME280;10706;49.036;12.112;2023-05-23T03:31:02;97296.75;;;12.79;93.99
21096;BME280;10706;49.036;12.112;2023-05-23T03:33:28;97290.28;;;12.75;93.39
21096;BME280;10706;49.036;12.112;2023-05-23T03:35:54;97288.41;;;12.76;93.39
21096;BME280;10706;49.036;12.112;2023-05-23T03:38:21;97295.09;;;12.73;94.20
21096;BME280;10706;49.036;12.112;2023-05-23T03:40:47;97299.94;;;12.76;94.00
21096;BME280;10706;49.036;12.112;2023-05-23T03:43:13;97302.06;;;12.74;94.12
21096;BME280;10706;49.036;12.112;2023-05-23T03:45:39;97303.69;;;12.75;94.54
21096;BME280;10706;49.036;12.112;2023-05-23T03:48:04;97303.69;;;12.75;94.47
21096;BME280;10706;49.036;12.112;2023-05-23T03:50:30;97306.09;;;12.77;93.95
21096;BME280;10706;49.036;12.112;2023-05-23T03:52:56;97310.13;;;12.79;93.65
21096;BME280;10706;49.036;12.112;2023-05-23T03:55:22;97309.34;;;12.79;93.63
21096;BME280;10706;49.036;12.112;2023-05-23T03:57:49;97301.28;;;12.79;93.65
21096;BME280;10706;49.036;12.112;2023-05-23T04:00:16;97311.22;;;12.78;93.64
21096;BME280;10706;49.036;12.112;2023-05-23T04:02:45;97310.41;;;12.83;93.91
21096;BME280;10706;49.036;12.112;2023-05-23T04:05:12;97306.94;;;12.82;93.72
21096;BME280;10706;49.036;12.112;2023-05-23T04:07:38;97305.38;;;12.92;94.06
21096;BME280;10706;49.036;12.112;2023-05-23T04:10:04;97312.91;;;13.00;93.86
21096;BME280;10706;49.036;12.112;2023-05-23T04:12:30;97311.34;;;13.09;94.03
21096;BME280;10706;49.036;12.112;2023-05-23T04:14:56;97310.28;;;13.10;92.83
21096;BME280;10706;49.036;12.112;2023-05-23T04:17:23;97307.09;;;13.18;92.70
21096;BME280;10706;49.036;12.112;2023-05-23T04:19:50;97309.00;;;13.28;93.24
21096;BME280;10706;49.036;12.112;2023-05-23T04:22:16;97310.94;;;13.33;92.63
21096;BME280;10706;49.036;12.112;2023-05-23T04:24:43;97304.78;;;13.37;92.58
21096;BME280;10706;49.036;12.112;2023-05-23T04:27:08;97314.72;;;13.42;92.05
21096;BME280;10706;49.036;12.112;2023-05-23T04:29:35;97306.69;;;13.47;92.32
21096;BME280;10706;49.036;12.112;2023-05-23T04:32:04;97307.78;;;13.56;91.80
21096;BME280;10706;49.036;12.112;2023-05-23T04:34:31;97328.47;;;13.61;91.80
21096;BME280;10706;49.036;12.112;2023-05-23T04:37:00;97341.06;;;13.66;91.93
21096;BME280;10706;49.036;12.112;2023-05-23T04:39:29;97336.22;;;13.63;91.78
21096;BME280;10706;49.036;12.112;2023-05-23T04:41:55;97346.16;;;13.62;92.40
21096;BME280;10706;49.036;12.112;2023-05-23T04:44:22;97342.94;;;13.65;92.14
21096;BME280;10706;49.036;12.112;2023-05-23T04:46:48;97340.53;;;13.64;93.11
21096;BME280;10706;49.036;12.112;2023-05-23T04:49:15;97347.50;;;13.65;92.50
21096;BME280;10706;49.036;12.112;2023-05-23T04:51:42;97343.75;;;13.66;93.00
21096;BME280;10706;49.036;12.112;2023-05-23T04:54:08;97348.06;;;13.67;93.20
21096;BME280;10706;49.036;12.112;2023-05-23T04:56:34;97343.22;;;13.69;92.72
21096;BME280;10706;49.036;12.112;2023-05-23T04:58:59;97348.03;;;13.72;92.54
21096;BME280;10706;49.036;12.112;2023-05-23T05:01:25;97351.53;;;13.77;93.00
21096;BME280;10706;49.036;12.112;2023-05-23T05:03:52;97350.50;;;13.84;92.42
21096;BME280;10706;49.036;12.112;2023-05-23T05:06:18;97347.81;;;13.89;92.28
21096;BME280;10706;49.036;12.112;2023-05-23T05:08:45;97346.50;;;13.96;92.70
21096;BME280;10706;49.036;12.112;2023-05-23T05:11:11;97352.41;;;14.09;92.66
21096;BME280;10706;49.036;12.112;2023-05-23T05:13:37;97349.19;;;14.22;92.63
21096;BME280;10706;49.036;12.112;2023-05-23T05:16:03;97357.53;;;14.46;92.40
21096;BME280;10706;49.036;12.112;2023-05-23T05:18:29;97360.22;;;14.67;91.95
21096;BME280;10706;49.036;12.112;2023-05-23T05:20:55;97360.44;;;14.86;91.35
21096;BME280;10706;49.036;12.112;2023-05-23T05:23:25;97364.19;;;15.00;89.24
21096;BME280;10706;49.036;12.112;2023-05-23T05:25:55;97359.84;;;15.14;88.98
21096;BME280;10706;49.036;12.112;2023-05-23T05:28:21;97353.59;;;15.34;88.13
21096;BME280;10706;49.036;12.112;2023-05-23T05:30:47;97344.38;;;15.51;87.15
21096;BME280;10706;49.036;12.112;2023-05-23T05:33:13;97350.72;;;15.76;87.06
21096;BME280;10706;49.036;12.112;2023-05-23T05:35:39;97358.94;;;15.94;86.36
21096;BME280;10706;49.036;12.112;2023-05-23T05:38:05;97369.44;;;16.01;85.52
21096;BME280;10706;49.036;12.112;2023-05-23T05:40:33;97365.00;;;16.16;85.94
21096;BME280;10706;49.036;12.112;2023-05-23T05:42:58;97365.97;;;16.30;85.18
21096;BME280;10706;49.036;12.112;2023-05-23T05:45:25;97367.75;;;16.45;83.87
21096;BME280;10706;49.036;12.112;2023-05-23T05:47:50;97361.41;;;16.65;84.08
21096;BME280;10706;49.036;12.112;2023-05-23T05:50:16;97372.06;;;16.75;84.06
21096;BME280;10706;49.036;12.112;2023-05-23T05:52:44;97359.84;;;16.88;82.67
21096;BME280;10706;49.036;12.112;2023-05-23T05:55:10;97363.28;;;16.94;81.33
21096;BME280;10706;49.036;12.112;2023-05-23T05:57:40;97369.44;;;16.99;81.51
21096;BME280;10706;49.036;12.112;2023-05-23T06:00:11;97366.09;;;17.07;81.70
21096;BME280;10706;49.036;12.112;2023-05-23T06:02:40;97367.13;;;17.12;81.66
21096;BME280;10706;49.036;12.112;2023-05-23T06:05:10;97369.72;;;17.22;81.23
21096;BME280;10706;49.036;12.112;2023-05-23T06:07:43;97365.31;;;17.31;81.43
21096;BME280;10706;49.036;12.112;2023-05-23T06:10:10;97378.34;;;17.48;80.99
21096;BME280;10706;49.036;12.112;2023-05-23T06:12:38;97379.81;;;17.59;79.87
21096;BME280;10706;49.036;12.112;2023-05-23T06:15:05;97380.63;;;17.79;79.44
21096;BME280;10706;49.036;12.112;2023-05-23T06:17:31;97380.81;;;17.87;78.35
21096;BME280;10706;49.036;12.112;2023-05-23T06:19:57;97385.00;;;17.99;77.60
21096;BME280;10706;49.036;12.112;2023-05-23T06:22:22;97386.88;;;18.17;76.14
21096;BME280;10706;49.036;12.112;2023-05-23T06:24:48;97392.41;;;18.26;76.23
21096;BME280;10706;49.036;12.112;2023-05-23T06:27:14;97390.22;;;18.47;75.23
21096;BME280;10706;49.036;12.112;2023-05-23T06:29:40;97391.00;;;18.48;75.78
21096;BME280;10706;49.036;12.112;2023-05-23T06:32:05;97388.31;;;18.48;75.37
21096;BME280;10706;49.036;12.112;2023-05-23T06:34:31;97392.53;;;18.54;75.09
21096;BME280;10706;49.036;12.112;2023-05-23T06:36:57;97395.63;;;18.80;74.90
21096;BME280;10706;49.036;12.112;2023-05-23T06:39:23;97398.78;;;19.01;73.21
21096;BME280;10706;49.036;12.112;2023-05-23T06:41:48;97402.78;;;18.90;73.25
21096;BME280;10706;49.036;12.112;2023-05-23T06:44:14;97409.91;;;18.99;73.24
21096;BME280;10706;49.036;12.112;2023-05-23T06:46:44;97405.16;;;19.24;71.78
21096;BME280;10706;49.036;12.112;2023-05-23T06:49:09;97400.72;;;19.28;71.83
21096;BME280;10706;49.036;12.112;2023-05-23T06:51:35;97396.63;;;19.45;70.86
21096;BME280;10706;49.036;12.112;2023-05-23T06:54:01;97407.75;;;19.43;69.99
21096;BME280;10706;49.036;12.112;2023-05-23T06:56:27;97401.44;;;19.61;71.14
21096;BME280;10706;49.036;12.112;2023-05-23T06:58:53;97396.47;;;19.91;68.87
21096;BME280;10706;49.036;12.112;2023-05-23T07:01:18;97396.28;;;20.02;68.33
21096;BME280;10706;49.036;12.112;2023-05-23T07:03:44;97384.53;;;20.29;66.73
21096;BME280;10706;49.036;12.112;2023-05-23T07:06:11;97390.84;;;20.61;66.15
21096;BME280;10706;49.036;12.112;2023-05-23T07:08:37;97400.47;;;20.44;66.85
21096;BME280;10706;49.036;12.112;2023-05-23T07:11:04;97397.88;;;20.39;66.37
21096;BME280;10706;49.036;12.112;2023-05-23T07:13:31;97402.34;;;20.44;66.16
21096;BME280;10706;49.036;12.112;2023-05-23T07:15:56;97397.69;;;20.35;68.11
21096;BME280;10706;49.036;12.112;2023-05-23T07:18:23;97402.97;;;20.18;68.54
21096;BME280;10706;49.036;12.112;2023-05-23T07:20:48;97406.56;;;20.27;68.20
21096;BME280;10706;49.036;12.112;2023-05-23T07:23:15;97408.59;;;20.44;66.47
21096;BME280;10706;49.036;12.112;2023-05-23T07:25:41;97410.13;;;20.36;66.00
21096;BME280;10706;49.036;12.112;2023-05-23T07:28:07;97420.41;;;20.26;66.78
21096;BME280;10706;49.036;12.112;2023-05-23T07:30:33;97411.91;;;20.18;67.24
21096;BME280;10706;49.036;12.112;2023-05-23T07:32:59;97411.44;;;20.25;66.42
21096;BME280;10706;49.036;12.112;2023-05-23T07:35:25;97418.59;;;20.21;65.84
21096;BME280;10706;49.036;12.112;2023-05-23T07:37:54;97425.34;;;20.24;66.86
21096;BME280;10706;49.036;12.112;2023-05-23T07:40:21;97418.28;;;20.36;66.81
21096;BME280;10706;49.036;12.112;2023-05-23T07:42:47;97415.69;;;20.31;64.87
21096;BME280;10706;49.036;12.112;2023-05-23T07:45:13;97422.41;;;20.56;65.93
21096;BME280;10706;49.036;12.112;2023-05-23T07:47:40;97423.66;;;20.73;64.80
21096;BME280;10706;49.036;12.112;2023-05-23T07:50:07;97421.53;;;20.61;65.09
21096;BME280;10706;49.036;12.112;2023-05-23T07:52:34;97421.41;;;20.52;66.39
21096;BME280;10706;49.036;12.112;2023-05-23T07:55:00;97427.03;;;20.56;66.13
21096;BME280;10706;49.036;12.112;2023-05-23T07:57:25;97429.06;;;20.50;67.26
21096;BME280;10706;49.036;12.112;2023-05-23T07:59:52;97427.16;;;20.51;66.05
21096;BME280;10706;49.036;12.112;2023-05-23T08:02:19;97427.09;;;20.42;66.34
21096;BME280;10706;49.036;12.112;2023-05-23T08:04:47;97430.09;;;20.41;66.65
21096;BME280;10706;49.036;12.112;2023-05-23T08:07:13;97425.94;;;20.20;66.40
21096;BME280;10706;49.036;12.112;2023-05-23T08:09:39;97425.09;;;20.34;67.31
21096;BME280;10706;49.036;12.112;2023-05-23T08:12:06;97422.09;;;20.58;67.06
21096;BME280;10706;49.036;12.112;2023-05-23T08:14:32;97419.00;;;20.65;65.70
21096;BME280;10706;49.036;12.112;2023-05-23T08:16:58;97419.81;;;20.74;65.01
21096;BME280;10706;49.036;12.112;2023-05-23T08:19:24;97418.72;;;20.75;66.46
21096;BME280;10706;49.036;12.112;2023-05-23T08:21:49;97416.97;;;20.70;64.81
21096;BME280;10706;49.036;12.112;2023-05-23T08:24:18;97419.16;;;20.68;65.82
21096;BME280;10706;49.036;12.112;2023-05-23T08:26:45;97430.00;;;20.68;64.92
21096;BME280;10706;49.036;12.112;2023-05-23T08:29:11;97429.38;;;20.49;65.70
21096;BME280;10706;49.036;12.112;2023-05-23T08:31:36;97425.97;;;20.43;65.57
21096;BME280;10706;49.036;12.112;2023-05-23T08:34:02;97439.34;;;20.39;66.16
21096;BME280;10706;49.036;12.112;2023-05-23T08:36:28;97433.31;;;20.43;66.31
21096;BME280;10706;49.036;12.112;2023-05-23T08:38:54;97439.69;;;20.61;66.28
21096;BME280;10706;49.036;12.112;2023-05-23T08:41:22;97443.72;;;20.63;65.59
21096;BME280;10706;49.036;12.112;2023-05-23T08:43:48;97440.84;;;20.91;64.47
21096;BME280;10706;49.036;12.112;2023-05-23T08:46:15;97445.38;;;20.95;63.83
21096;BME280;10706;49.036;12.112;2023-05-23T08:48:51;97448.50;;;20.89;62.95
21096;BME280;10706;49.036;12.112;2023-05-23T08:51:18;97450.97;;;20.99;65.02
21096;BME280;10706;49.036;12.112;2023-05-23T08:53:47;97446.19;;;21.27;61.21
21096;BME280;10706;49.036;12.112;2023-05-23T08:56:14;97458.00;;;21.31;60.78
21096;BME280;10706;49.036;12.112;2023-05-23T08:58:42;97463.78;;;21.07;62.65
21096;BME280;10706;49.036;12.112;2023-05-23T09:01:13;97454.97;;;21.02;61.10
21096;BME280;10706;49.036;12.112;2023-05-23T09:03:40;97465.03;;;21.55;60.74
21096;BME280;10706;49.036;12.112;2023-05-23T09:06:09;97469.31;;;21.47;59.36
21096;BME280;10706;49.036;12.112;2023-05-23T09:08:36;97473.22;;;21.32;59.95
21096;BME280;10706;49.036;12.112;2023-05-23T09:11:03;97470.78;;;21.00;60.98
21096;BME280;10706;49.036;12.112;2023-05-23T09:13:31;97463.38;;;21.23;61.21
21096;BME280;10706;49.036;12.112;2023-05-23T09:16:04;97471.13;;;21.69;60.21
21096;BME280;10706;49.036;12.112;2023-05-23T09:18:42;97471.25;;;21.55;59.14
21096;BME280;10706;49.036;12.112;2023-05-23T09:21:09;97470.94;;;21.57;60.19
21096;BME280;10706;49.036;12.112;2023-05-23T09:23:37;97474.16;;;21.59;58.09
21096;BME280;10706;49.036;12.112;2023-05-23T09:26:08;97471.28;;;21.33;58.74
21096;BME280;10706;49.036;12.112;2023-05-23T09:28:36;97469.00;;;21.26;59.67
21096;BME280;10706;49.036;12.112;2023-05-23T09:31:05;97472.34;;;21.54;59.64
21096;BME280;10706;49.036;12.112;2023-05-23T09:33:45;97470.31;;;21.60;60.30
21096;BME280;10706;49.036;12.112;2023-05-23T09:36:12;97473.28;;;21.90;58.53
21096;BME280;10706;49.036;12.112;2023-05-23T09:38:39;97470.44;;;21.95;58.28
21096;BME280;10706;49.036;12.112;2023-05-23T09:41:06;97472.88;;;22.14;59.36
21096;BME280;10706;49.036;12.112;2023-05-23T09:43:32;97479.50;;;22.39;56.76
21096;BME280;10706;49.036;12.112;2023-05-23T09:46:09;97468.44;;;22.88;56.02
21096;BME280;10706;49.036;12.112;2023-05-23T09:48:36;97470.03;;;22.80;55.12
21096;BME280;10706;49.036;12.112;2023-05-23T09:51:08;97485.41;;;22.85;53.98
21096;BME280;10706;49.036;12.112;2023-05-23T09:53:35;97479.34;;;22.53;53.99
21096;BME280;10706;49.036;12.112;2023-05-23T09:56:04;97478.00;;;22.16;55.78
21096;BME280;10706;49.036;12.112;2023-05-23T09:58:32;97480.75;;;22.33;55.79
21096;BME280;10706;49.036;12.112;2023-05-23T10:00:59;97483.66;;;22.63;54.49
21096;BME280;10706;49.036;12.112;2023-05-23T10:03:39;97493.44;;;22.55;54.83
21096;BME280;10706;49.036;12.112;2023-05-23T10:06:11;97492.88;;;22.18;54.88
21096;BME280;10706;49.036;12.112;2023-05-23T10:08:44;97494.00;;;21.68;55.74
21096;BME280;10706;49.036;12.112;2023-05-23T10:13:45;97489.13;;;21.48;57.53
21096;BME280;10706;49.036;12.112;2023-05-23T10:16:37;97487.59;;;21.64;55.44
21096;BME280;10706;49.036;12.112;2023-05-23T10:19:26;97476.66;;;21.47;54.58
21096;BME280;10706;49.036;12.112;2023-05-23T10:22:03;97481.06;;;21.43;55.01
21096;BME280;10706;49.036;12.112;2023-05-23T10:24:29;97482.06;;;21.47;55.95
21096;BME280;10706;49.036;12.112;2023-05-23T10:26:55;97483.56;;;21.53;55.41
21096;BME280;10706;49.036;12.112;2023-05-23T10:29:23;97485.41;;;21.44;54.92
21096;BME280;10706;49.036;12.112;2023-05-23T10:31:50;97477.47;;;21.47;55.11
21096;BME280;10706;49.036;12.112;2023-05-23T10:34:37;97484.31;;;21.45;55.45
21096;BME280;10706;49.036;12.112;2023-05-23T10:37:06;97480.69;;;21.58;56.00
21096;BME280;10706;49.036;12.112;2023-05-23T10:40:12;97483.66;;;21.79;55.86
21096;BME280;10706;49.036;12.112;2023-05-23T10:45:20;97480.66;;;21.89;53.54
21096;BME280;10706;49.036;12.112;2023-05-23T10:47:48;97479.53;;;21.90;54.35
21096;BME280;10706;49.036;12.112;2023-05-23T10:50:32;97486.63;;;22.18;53.50
21096;BME280;10706;49.036;12.112;2023-05-23T10:53:03;97482.81;;;22.19;54.31
21096;BME280;10706;49.036;12.112;2023-05-23T10:55:34;97489.75;;;22.51;52.89
21096;BME280;10706;49.036;12.112;2023-05-23T10:58:17;97485.16;;;22.03;54.35
21096;BME280;10706;49.036;12.112;2023-05-23T11:00:56;97485.63;;;22.05;53.58
21096;BME280;10706;49.036;12.112;2023-05-23T11:06:41;97489.19;;;22.14;53.91
21096;BME280;10706;49.036;12.112;2023-05-23T11:09:11;97486.59;;;22.09;53.06
21096;BME280;10706;49.036;12.112;2023-05-23T11:14:42;97488.91;;;22.33;52.05
21096;BME280;10706;49.036;12.112;2023-05-23T11:17:16;97483.34;;;22.73;51.18
21096;BME280;10706;49.036;12.112;2023-05-23T11:20:02;97489.44;;;22.52;51.66
21096;BME280;10706;49.036;12.112;2023-05-23T11:22:31;97478.97;;;22.20;51.52
21096;BME280;10706;49.036;12.112;2023-05-23T11:24:58;97474.03;;;21.64;53.19
21096;BME280;10706;49.036;12.112;2023-05-23T11:32:33;97469.91;;;21.84;54.94
21096;BME280;10706;49.036;12.112;2023-05-23T11:35:09;97474.00;;;22.22;54.06
21096;BME280;10706;49.036;12.112;2023-05-23T11:37:38;97476.47;;;22.32;52.67
21096;BME280;10706;49.036;12.112;2023-05-23T11:42:57;97470.88;;;22.55;49.81
21096;BME280;10706;49.036;12.112;2023-05-23T11:45:24;97469.31;;;23.36;50.08
21096;BME280;10706;49.036;12.112;2023-05-23T11:47:50;97471.97;;;23.53;48.30
21096;BME280;10706;49.036;12.112;2023-05-23T11:50:16;97461.28;;;23.78;47.67
21096;BME280;10706;49.036;12.112;2023-05-23T11:52:43;97462.94;;;24.09;46.85
21096;BME280;10706;49.036;12.112;2023-05-23T11:55:09;97469.16;;;23.88;46.99
21096;BME280;10706;49.036;12.112;2023-05-23T11:57:38;97461.06;;;23.62;48.24
21096;BME280;10706;49.036;12.112;2023-05-23T12:00:08;97470.19;;;24.25;46.79
21096;BME280;10706;49.036;12.112;2023-05-23T12:02:39;97454.03;;;24.83;43.96
21096;BME280;10706;49.036;12.112;2023-05-23T12:05:13;97456.31;;;24.60;43.94
21096;BME280;10706;49.036;12.112;2023-05-23T12:07:40;97459.06;;;23.80;44.94
21096;BME280;10706;49.036;12.112;2023-05-23T12:10:08;97460.69;;;24.32;44.29
21096;BME280;10706;49.036;12.112;2023-05-23T12:12:35;97450.28;;;25.21;43.88
21096;BME280;10706;49.036;12.112;2023-05-23T12:15:02;97461.53;;;25.08;43.25
21096;BME280;10706;49.036;12.112;2023-05-23T12:17:28;97467.94;;;24.49;43.92
21096;BME280;10706;49.036;12.112;2023-05-23T12:19:54;97460.66;;;24.61;42.84
21096;BME280;10706;49.036;12.112;2023-05-23T12:22:23;97462.00;;;24.89;43.84
21096;BME280;10706;49.036;12.112;2023-05-23T12:24:52;97463.59;;;24.90;44.43
21096;BME280;10706;49.036;12.112;2023-05-23T12:27:30;97461.34;;;25.25;43.39
21096;BME280;10706;49.036;12.112;2023-05-23T12:30:12;97452.88;;;26.13;40.59
21096;BME280;10706;49.036;12.112;2023-05-23T12:32:40;97450.34;;;25.46;41.42
21096;BME280;10706;49.036;12.112;2023-05-23T12:35:12;97459.81;;;25.61;41.72
21096;BME280;10706;49.036;12.112;2023-05-23T12:37:43;97464.69;;;25.55;41.64
21096;BME280;10706;49.036;12.112;2023-05-23T12:40:15;97454.97;;;26.44;40.28
21096;BME280;10706;49.036;12.112;2023-05-23T12:42:55;97452.44;;;27.52;37.70
21096;BME280;10706;49.036;12.112;2023-05-23T12:45:24;97457.75;;;27.45;37.47
21096;BME280;10706;49.036;12.112;2023-05-23T12:47:55;97462.09;;;27.94;35.92
21096;BME280;10706;49.036;12.112;2023-05-23T12:50:21;97458.47;;;27.13;38.93
21096;BME280;10706;49.036;12.112;2023-05-23T12:52:47;97471.88;;;25.72;40.92
21096;BME280;10706;49.036;12.112;2023-05-23T12:55:13;97466.84;;;25.04;42.74
21096;BME280;10706;49.036;12.112;2023-05-23T12:57:39;97478.31;;;23.75;44.40
21096;BME280;10706;49.036;12.112;2023-05-23T13:00:05;97470.19;;;23.66;45.96
21096;BME280;10706;49.036;12.112;2023-05-23T13:02:31;97478.69;;;24.03;45.10
21096;BME280;10706;49.036;12.112;2023-05-23T13:04:57;97467.66;;;24.20;43.07
21096;BME280;10706;49.036;12.112;2023-05-23T13:07:23;97458.66;;;25.04;42.40
21096;BME280;10706;49.036;12.112;2023-05-23T13:09:48;97472.75;;;24.73;42.36
21096;BME280;10706;49.036;12.112;2023-05-23T13:12:14;97486.13;;;24.87;41.73
21096;BME280;10706;49.036;12.112;2023-05-23T13:14:41;97473.31;;;24.15;42.81
21096;BME280;10706;49.036;12.112;2023-05-23T13:17:06;97481.66;;;24.40;44.41
21096;BME280;10706;49.036;12.112;2023-05-23T13:19:32;97485.88;;;24.08;44.46
21096;BME280;10706;49.036;12.112;2023-05-23T13:21:58;97484.88;;;24.42;42.42